• Join FlightAware (Why Join?)
  • Login
  • US Flag 
02:24AM EDT


 

Airport Tracker/Info


-or-


 

Live Flight TrackerFlight Track Log ✈ THY604 ✈ 30-Apr-2012 ✈ HTDA / DAR - LTBA / IST

Flight Track Log - Related Links

Times and Time Zones

All times are in EDT time to prevent confusion due to time zone crossing. See the THY604 flight status page for this flight to view local times or setup timezone preferences in your user account.

Time Position Orientation Groundspeed Altitude Reporting Facility
EDT Latitude Longitude Course Direction KTS MPH feet Rate Location/Type
09:54PM -3.4541 38.5724 350° North  Level Estimated
09:55PM -3.3370 38.5509 350° North  Level Estimated
09:56PM -3.2199 38.5295 350° North  Level Estimated
09:57PM -3.1029 38.5081 350° North  Level Estimated
09:58PM -2.9858 38.4866 350° North  Level Estimated
09:59PM -2.8687 38.4652 350° North  Level Estimated
10:00PM -2.7517 38.4438 350° North  Level Estimated
10:01PM -2.6346 38.4224 350° North  Level Estimated
10:02PM -2.5175 38.4010 350° North  Level Estimated
10:03PM -2.4004 38.3796 350° North  Level Estimated
10:04PM -2.2834 38.3582 350° North  Level Estimated
10:05PM -2.1663 38.3368 350° North  Level Estimated
10:06PM -2.0492 38.3154 350° North  Level Estimated
10:07PM -1.9321 38.2940 350° North  Level Estimated
10:08PM -1.8151 38.2726 350° North  Level Estimated
10:09PM -1.6980 38.2512 350° North  Level Estimated
10:10PM -1.5809 38.2298 350° North  Level Estimated
10:11PM -1.4638 38.2085 350° North  Level Estimated
10:12PM -1.3467 38.1871 350° North  Level Estimated
10:13PM -1.2297 38.1657 350° North  Level Estimated
10:14PM -1.1126 38.1443 350° North  Level Estimated
10:15PM -0.9955 38.1230 350° North  Level Estimated
10:16PM -0.8784 38.1016 350° North  Level Estimated
10:17PM -0.7613 38.0802 350° North  Level Estimated
10:18PM -0.6443 38.0588 350° North  Level Estimated
10:19PM -0.5272 38.0375 350° North  Level Estimated
10:20PM -0.4101 38.0161 350° North  Level Estimated
10:21PM -0.2930 37.9947 350° North  Level Estimated
10:22PM -0.1759 37.9734 350° North  Level Estimated
10:23PM -0.0589 37.9520 350° North  Level Estimated
10:24PM 0.0582 37.9306 350° North  Level Estimated
10:25PM 0.1753 37.9093 350° North  Level Estimated
10:26PM 0.2924 37.8879 350° North  Level Estimated
10:27PM 0.4095 37.8665 350° North  Level Estimated
10:28PM 0.5265 37.8451 350° North  Level Estimated
10:29PM 0.6436 37.8238 350° North  Level Estimated
10:30PM 0.7607 37.8024 350° North  Level Estimated
10:31PM 0.8778 37.7810 350° North  Level Estimated
10:32PM 0.9949 37.7597 350° North  Level Estimated
10:33PM 1.1119 37.7383 350° North  Level Estimated
10:34PM 1.2290 37.7169 350° North  Level Estimated
10:35PM 1.3461 37.6955 350° North  Level Estimated
10:36PM 1.4632 37.6742 350° North  Level Estimated
10:37PM 1.5803 37.6528 350° North  Level Estimated
10:38PM 1.6973 37.6314 350° North  Level Estimated
10:39PM 1.8144 37.6100 350° North  Level Estimated
10:40PM 1.9315 37.5886 350° North  Level Estimated
10:41PM 2.0486 37.5672 350° North  Level Estimated
10:42PM 2.1657 37.5458 350° North  Level Estimated
10:43PM 2.2827 37.5244 350° North  Level Estimated
10:44PM 2.3998 37.5031 350° North  Level Estimated
10:45PM 2.5169 37.4817 350° North  Level Estimated
10:46PM 2.6339 37.4602 350° North  Level Estimated
10:47PM 2.7510 37.4388 350° North  Level Estimated
10:48PM 2.8681 37.4174 350° North  Level Estimated
10:49PM 2.9852 37.3960 350° North  Level Estimated
10:50PM 3.1022 37.3746 350° North  Level Estimated
10:51PM 3.2193 37.3531 350° North  Level Estimated
10:52PM 3.3364 37.3317 350° North  Level Estimated
10:53PM 3.4534 37.3102 350° North  Level Estimated
10:54PM 3.5705 37.2888 350° North  Level Estimated
10:55PM 3.6876 37.2673 350° North  Level Estimated
10:56PM 3.8046 37.2459 350° North  Level Estimated
10:57PM 3.9217 37.2244 350° North  Level Estimated
10:58PM 4.0388 37.2030 350° North  Level Estimated
10:59PM 4.1558 37.1815 350° North  Level Estimated
11:00PM 4.2729 37.1600 350° North  Level Estimated
11:01PM 4.3900 37.1385 350° North  Level Estimated
11:02PM 4.5071 37.1170 350° North  Level Estimated
11:03PM 4.6241 37.0955 350° North  Level Estimated
11:04PM 4.7412 37.0740 350° North  Level Estimated
11:05PM 4.8583 37.0525 350° North  Level Estimated
11:06PM 4.9753 37.0310 350° North  Level Estimated
11:07PM 5.0924 37.0094 350° North  Level Estimated
11:08PM 5.2094 36.9879 350° North  Level Estimated
11:09PM 5.3265 36.9664 350° North  Level Estimated
11:10PM 5.4436 36.9448 350° North  Level Estimated
11:11PM 5.5606 36.9232 350° North  Level Estimated
11:12PM 5.6777 36.9017 350° North  Level Estimated
11:13PM 5.7947 36.8801 350° North  Level Estimated
11:14PM 5.9118 36.8585 350° North  Level Estimated
11:15PM 6.0289 36.8369 350° North  Level Estimated
11:16PM 6.1459 36.8153 350° North  Level Estimated
11:17PM 6.2630 36.7937 350° North  Level Estimated
11:18PM 6.3800 36.7720 350° North  Level Estimated
11:19PM 6.4971 36.7504 350° North  Level Estimated
11:20PM 6.6141 36.7287 350° North  Level Estimated
11:21PM 6.7312 36.7071 350° North  Level Estimated
11:22PM 6.8482 36.6854 350° North  Level Estimated
11:23PM 6.9653 36.6637 350° North  Level Estimated
11:24PM 7.0823 36.6421 350° North  Level Estimated
11:25PM 7.1994 36.6203 350° North  Level Estimated
11:26PM 7.3164 36.5986 350° North  Level Estimated
11:27PM 7.4335 36.5769 350° North  Level Estimated
11:28PM 7.5505 36.5552 350° North  Level Estimated
11:29PM 7.6675 36.5334 350° North  Level Estimated
11:30PM 7.7846 36.5117 350° North  Level Estimated
11:31PM 7.9016 36.4899 350° North  Level Estimated
11:32PM 8.0187 36.4681 350° North  Level Estimated
11:33PM 8.1357 36.4463 350° North  Level Estimated
11:34PM 8.2527 36.4245 350° North  Level Estimated
11:35PM 8.3698 36.4027 350° North  Level Estimated
11:36PM 8.4868 36.3809 350° North  Level Estimated
11:37PM 8.6038 36.3590 350° North  Level Estimated
11:38PM 8.7209 36.3372 350° North  Level Estimated
11:39PM 8.8379 36.3153 350° North  Level Estimated
11:40PM 8.9549 36.2934 350° North  Level Estimated
11:41PM 9.0720 36.2715 350° North  Level Estimated
11:42PM 9.1890 36.2496 350° North  Level Estimated
11:43PM 9.3060 36.2276 350° North  Level Estimated
11:44PM 9.4230 36.2057 350° North  Level Estimated
11:45PM 9.5401 36.1837 350° North  Level Estimated
11:46PM 9.6571 36.1618 350° North  Level Estimated
11:47PM 9.7741 36.1398 350° North  Level Estimated
11:48PM 9.8911 36.1177 350° North  Level Estimated
11:49PM 10.0081 36.0957 349° North  Level Estimated
11:50PM 10.1252 36.0737 349° North  Level Estimated
11:51PM 10.2422 36.0516 349° North  Level Estimated
11:52PM 10.3592 36.0296 349° North  Level Estimated
11:53PM 10.4762 36.0075 349° North  Level Estimated
11:54PM 10.5932 35.9854 349° North  Level Estimated
11:55PM 10.7102 35.9632 349° North  Level Estimated
11:56PM 10.8272 35.9411 349° North  Level Estimated
11:57PM 10.9442 35.9189 349° North  Level Estimated
11:58PM 11.0612 35.8968 349° North  Level Estimated
11:59PM 11.1782 35.8746 349° North  Level Estimated
12:00AM 11.2952 35.8524 349° North  Level Estimated
12:01AM 11.4122 35.8302 349° North  Level Estimated
12:02AM 11.5292 35.8079 349° North  Level Estimated
12:03AM 11.6462 35.7856 349° North  Level Estimated
12:04AM 11.7632 35.7634 349° North  Level Estimated
12:05AM 11.8802 35.7411 349° North  Level Estimated
12:06AM 11.9972 35.7188 349° North  Level Estimated
12:07AM 12.1142 35.6964 349° North  Level Estimated
12:08AM 12.2312 35.6740 349° North  Level Estimated
12:09AM 12.3482 35.6517 349° North  Level Estimated
12:10AM 12.4652 35.6293 349° North  Level Estimated
12:11AM 12.5821 35.6068 349° North  Level Estimated
12:12AM 12.6991 35.5844 349° North  Level Estimated
12:13AM 12.8161 35.5620 349° North  Level Estimated
12:14AM 12.9331 35.5395 349° North  Level Estimated
12:15AM 13.0500 35.5170 349° North  Level Estimated
12:16AM 13.1670 35.4944 349° North  Level Estimated
12:17AM 13.2840 35.4719 349° North  Level Estimated
12:18AM 13.4010 35.4493 349° North  Level Estimated
12:19AM 13.5179 35.4267 349° North  Level Estimated
12:20AM 13.6349 35.4041 349° North  Level Estimated
12:21AM 13.7519 35.3815 349° North  Level Estimated
12:22AM 13.8688 35.3588 349° North  Level Estimated
12:23AM 13.9858 35.3362 349° North  Level Estimated
12:24AM 14.1027 35.3135 349° North  Level Estimated
12:25AM 14.2197 35.2907 349° North  Level Estimated
12:26AM 14.3366 35.2680 349° North  Level Estimated
12:27AM 14.4536 35.2452 349° North  Level Estimated
12:28AM 14.5705 35.2224 349° North  Level Estimated
12:29AM 14.6875 35.1996 349° North  Level Estimated
12:30AM 14.8044 35.1768 349° North  Level Estimated
12:31AM 14.9213 35.1539 349° North  Level Estimated
12:32AM 15.0383 35.1310 349° North  Level Estimated
12:33AM 15.1552 35.1081 349° North  Level Estimated
12:34AM 15.2722 35.0851 349° North  Level Estimated
12:35AM 15.3891 35.0622 349° North  Level Estimated
12:36AM 15.5060 35.0392 349° North  Level Estimated
12:37AM 15.6229 35.0161 349° North  Level Estimated
12:38AM 15.7399 34.9931 349° North  Level Estimated
12:39AM 15.8568 34.9700 349° North  Level Estimated
12:40AM 15.9737 34.9469 349° North  Level Estimated
12:41AM 16.0906 34.9238 349° North  Level Estimated
12:42AM 16.2075 34.9006 349° North  Level Estimated
12:43AM 16.3244 34.8774 349° North  Level Estimated
12:44AM 16.4414 34.8542 349° North  Level Estimated
12:45AM 16.5583 34.8310 349° North  Level Estimated
12:46AM 16.6752 34.8077 349° North  Level Estimated
12:47AM 16.7921 34.7844 349° North  Level Estimated
12:48AM 16.9090 34.7611 349° North  Level Estimated
12:49AM 17.0259 34.7378 349° North  Level Estimated
12:50AM 17.1428 34.7144 349° North  Level Estimated
12:51AM 17.2596 34.6910 349° North  Level Estimated
12:52AM 17.3765 34.6675 349° North  Level Estimated
12:53AM 17.4934 34.6441 349° North  Level Estimated
12:54AM 17.6103 34.6205 349° North  Level Estimated
12:55AM 17.7272 34.5970 349° North  Level Estimated
12:56AM 17.8441 34.5735 349° North  Level Estimated
12:57AM 17.9609 34.5499 349° North  Level Estimated
12:58AM 18.0778 34.5262 349° North  Level Estimated
12:59AM 18.1947 34.5026 349° North  Level Estimated
01:00AM 18.3115 34.4789 349° North  Level Estimated
01:01AM 18.4284 34.4552 349° North  Level Estimated
01:02AM 18.5453 34.4314 349° North  Level Estimated
01:03AM 18.6621 34.4076 349° North  Level Estimated
01:04AM 18.7790 34.3838 349° North  Level Estimated
01:05AM 18.8958 34.3599 349° North  Level Estimated
01:06AM 19.0127 34.3360 349° North  Level Estimated
01:07AM 19.1295 34.3121 349° North  Level Estimated
01:08AM 19.2464 34.2882 349° North  Level Estimated
01:09AM 19.3632 34.2642 349° North  Level Estimated
01:10AM 19.4800 34.2402 349° North  Level Estimated
01:11AM 19.5969 34.2161 349° North  Level Estimated
01:12AM 19.7137 34.1920 349° North  Level Estimated
01:13AM 19.8305 34.1679 349° North  Level Estimated
01:14AM 19.9473 34.1437 349° North  Level Estimated
01:15AM 20.0642 34.1195 349° North  Level Estimated
01:16AM 20.1810 34.0953 349° North  Level Estimated
01:17AM 20.2978 34.0710 349° North  Level Estimated
01:18AM 20.4146 34.0467 349° North  Level Estimated
01:19AM 20.5314 34.0224 349° North  Level Estimated
01:20AM 20.6482 33.9980 349° North  Level Estimated
01:21AM 20.7650 33.9736 349° North  Level Estimated
01:22AM 20.8818 33.9491 349° North  Level Estimated
01:23AM 20.9986 33.9246 349° North  Level Estimated
01:24AM 21.1154 33.9001 349° North  Level Estimated
01:25AM 21.2322 33.8755 349° North  Level Estimated
01:26AM 21.3490 33.8509 349° North  Level Estimated
01:27AM 21.4657 33.8263 349° North  Level Estimated
01:28AM 21.5825 33.8016 349° North  Level Estimated
01:29AM 21.6993 33.7769 349° North  Level Estimated
01:30AM 21.8160 33.7521 349° North  Level Estimated
01:31AM 21.9328 33.7273 349° North  Level Estimated
01:32AM 22.0496 33.7024 349° North  Level Estimated
01:33AM 22.1663 33.6775 349° North  Level Estimated
01:34AM 22.2831 33.6526 349° North  Level Estimated
01:35AM 22.3998 33.6276 349° North  Level Estimated
01:36AM 22.5166 33.6026 349° North  Level Estimated
01:37AM 22.6333 33.5775 349° North  Level Estimated
01:38AM 22.7500 33.5524 349° North  Level Estimated
01:39AM 22.8668 33.5273 349° North  Level Estimated
01:40AM 22.9835 33.5021 349° North  Level Estimated
01:41AM 23.1002 33.4769 349° North  Level Estimated
01:42AM 23.2169 33.4516 349° North  Level Estimated
01:43AM 23.3337 33.4263 349° North  Level Estimated
01:44AM 23.4504 33.4009 349° North  Level Estimated
01:45AM 23.5671 33.3755 349° North  Level Estimated
01:46AM 23.6838 33.3501 349° North  Level Estimated
01:47AM 23.8005 33.3246 349° North  Level Estimated
01:48AM 23.9172 33.2990 349° North  Level Estimated
01:49AM 24.0339 33.2734 349° North  Level Estimated
01:50AM 24.1506 33.2478 349° North  Level Estimated
01:51AM 24.2673 33.2221 349° North  Level Estimated
01:52AM 24.3839 33.1964 349° North  Level Estimated
01:53AM 24.5006 33.1706 349° North  Level Estimated
01:54AM 24.6173 33.1448 349° North  Level Estimated
01:55AM 24.7339 33.1189 349° North  Level Estimated
01:56AM 24.8506 33.0930 349° North  Level Estimated
01:57AM 24.9673 33.0670 349° North  Level Estimated
01:58AM 25.0839 33.0410 349° North  Level Estimated
01:59AM 25.2006 33.0149 349° North  Level Estimated
02:00AM 25.3172 32.9888 349° North  Level Estimated
02:01AM 25.4338 32.9626 349° North  Level Estimated
02:02AM 25.5505 32.9364 349° North  Level Estimated
02:03AM 25.6671 32.9101 349° North  Level Estimated
02:04AM 25.7837 32.8838 348° North  Level Estimated
02:05AM 25.9004 32.8574 348° North  Level Estimated
02:06AM 26.0170 32.8310 348° North  Level Estimated
02:07AM 26.1336 32.8045 348° North  Level Estimated
02:08AM 26.2502 32.7780 348° North  Level Estimated
02:09AM 26.3668 32.7514 348° North  Level Estimated
02:10AM 26.4834 32.7247 348° North  Level Estimated
02:11AM 26.6000 32.6980 348° North  Level Estimated
02:12AM 26.7166 32.6713 348° North  Level Estimated
02:13AM 26.8331 32.6445 348° North  Level Estimated
02:14AM 26.9497 32.6176 348° North  Level Estimated
02:15AM 27.0663 32.5907 348° North  Level Estimated
02:16AM 27.1828 32.5637 348° North  Level Estimated
02:17AM 27.2994 32.5367 348° North  Level Estimated
02:18AM 27.4160 32.5096 348° North  Level Estimated
02:19AM 27.5325 32.4825 348° North  Level Estimated
02:20AM 27.6491 32.4553 348° North  Level Estimated
02:21AM 27.7656 32.4280 348° North  Level Estimated
02:22AM 27.8821 32.4007 348° North  Level Estimated
02:23AM 27.9987 32.3733 348° North  Level Estimated
02:24AM 28.1152 32.3459 348° North  Level Estimated
02:25AM 28.2317 32.3184 348° North  Level Estimated
02:26AM 28.3482 32.2909 348° North  Level Estimated
02:27AM 28.4647 32.2632 348° North  Level Estimated
02:28AM 28.5812 32.2356 348° North  Level Estimated
02:29AM 28.6977 32.2078 348° North  Level Estimated
02:30AM 28.8142 32.1800 348° North  Level Estimated
02:31AM 28.9307 32.1522 348° North  Level Estimated
02:32AM 29.0472 32.1242 348° North  Level Estimated
02:33AM 29.1636 32.0962 348° North  Level Estimated
02:34AM 29.2801 32.0682 348° North  Level Estimated
02:35AM 29.3966 32.0401 348° North  Level Estimated
02:36AM 29.5130 32.0119 348° North  Level Estimated
02:37AM 29.6295 31.9837 348° North  Level Estimated
02:38AM 29.7459 31.9554 348° North  Level Estimated
02:39AM 29.8624 31.9270 348° North  Level Estimated
02:40AM 29.9788 31.8985 348° North  Level Estimated
02:41AM 30.0952 31.8700 348° North  Level Estimated
02:42AM 30.2116 31.8414 348° North  Level Estimated
02:43AM 30.3280 31.8128 348° North  Level Estimated
02:44AM 30.4444 31.7841 348° North  Level Estimated
02:45AM 30.5608 31.7553 348° North  Level Estimated
02:46AM 30.6772 31.7265 348° North  Level Estimated
02:47AM 30.7936 31.6975 348° North  Level Estimated
02:48AM 30.9100 31.6686 348° North  Level Estimated
02:49AM 31.0264 31.6395 348° North  Level Estimated
02:50AM 31.1427 31.6104 348° North  Level Estimated
02:51AM 31.2591 31.5812 348° North  Level Estimated
02:52AM 31.3755 31.5519 348° North  Level Estimated
02:53AM 31.4918 31.5226 348° North  Level Estimated
02:54AM 31.6081 31.4931 348° North  Level Estimated
02:55AM 31.7245 31.4636 348° North  Level Estimated
02:56AM 31.8408 31.4341 348° North  Level Estimated
02:57AM 31.9571 31.4044 348° North  Level Estimated
02:58AM 32.0734 31.3747 348° North  Level Estimated
02:59AM 32.1897 31.3449 348° North  Level Estimated
03:00AM 32.3060 31.3151 348° North  Level Estimated
03:01AM 32.4223 31.2851 348° North  Level Estimated
03:02AM 32.5386 31.2551 348° North  Level Estimated
03:03AM 32.6549 31.2250 348° North  Level Estimated
03:04AM 32.7712 31.1948 348° North  Level Estimated
03:05AM 32.8874 31.1645 348° North  Level Estimated
03:06AM 33.0037 31.1342 348° North  Level Estimated
03:07AM 33.1199 31.1038 348° North  Level Estimated
03:08AM 33.2362 31.0733 348° North  Level Estimated
03:09AM 33.3524 31.0427 348° North  Level Estimated
03:10AM 33.4686 31.0120 348° North  Level Estimated
03:11AM 33.5849 30.9813 348° North  Level Estimated
03:12AM 33.7011 30.9505 348° North  Level Estimated
03:13AM 33.8173 30.9196 348° North  Level Estimated
03:14AM 33.9335 30.8886 348° North  Level Estimated
03:15AM 34.0496 30.8575 347° North  Level Estimated
03:16AM 34.1658 30.8263 347° North  Level Estimated
03:17AM 34.2820 30.7951 347° North  Level Estimated
03:18AM 34.3982 30.7637 347° North  Level Estimated
03:19AM 34.5143 30.7323 347° North  Level Estimated
03:20AM 34.6305 30.7008 347° North  Level Estimated
03:21AM 34.7466 30.6692 347° North  Level Estimated
03:22AM 34.8628 30.6375 347° North  Level Estimated
03:23AM 34.9789 30.6057 347° North  Level Estimated
03:24AM 35.0950 30.5739 347° North  Level Estimated
03:25AM 35.2111 30.5419 347° North  Level Estimated
03:26AM 35.3272 30.5098 347° North  Level Estimated
03:27AM 35.4433 30.4777 347° North  Level Estimated
03:28AM 35.5594 30.4455 347° North  Level Estimated
03:29AM 35.6754 30.4131 347° North  Level Estimated
03:30AM 35.7915 30.3807 347° North  Level Estimated
03:31AM 35.9076 30.3482 347° North  Level Estimated
03:32AM 36.0236 30.3156 347° North  Level Estimated
03:33AM 36.1397 30.2829 347° North  Level Estimated
03:34AM 36.2557 30.2501 347° North  Level Estimated
03:35AM 36.3717 30.2171 347° North  Level Estimated
03:36AM 36.4877 30.1842 347° North  Level Estimated
03:37AM 36.6037 30.1511 347° North  Level Estimated
03:38AM 36.7197 30.1178 347° North  Level Estimated
03:39AM 36.8357 30.0846 347° North  Level Estimated
03:40AM 36.9517 30.0511 347° North  Level Estimated
03:41AM 37.0676 30.0176 347° North  Level Estimated
03:42AM 37.1836 29.9840 347° North  Level Estimated
03:43AM 37.2995 29.9503 347° North  Level Estimated
03:44AM 37.4155 29.9165 347° North  Level Estimated
03:45AM 37.5314 29.8826 347° North  Level Estimated
03:46AM 37.6473 29.8486 347° North  Level Estimated
03:47AM 37.7632 29.8144 347° North  Level Estimated
03:48AM 37.8791 29.7802 347° North  Level Estimated
03:49AM 37.9950 29.7458 347° North  Level Estimated
03:50AM 38.1109 29.7114 347° North  Level Estimated
03:51AM 38.2268 29.6768 347° North  Level Estimated
03:52AM 38.3426 29.6421 347° North  Level Estimated
03:53AM 38.4585 29.6073 347° North  Level Estimated
03:54AM 38.5743 29.5724 347° North  Level Estimated
03:55AM 38.6902 29.5374 347° North  Level Estimated
03:56AM 38.8060 29.5023 347° North  Level Estimated
03:57AM 38.9218 29.4671 347° North  Level Estimated
03:58AM 39.0376 29.4317 347° North  Level Estimated
03:59AM 39.1533 29.3962 347° North  Level Estimated
04:00AM 39.2691 29.3606 347° North  Level Estimated
04:01AM 39.3849 29.3249 347° North  Level Estimated
04:02AM 39.5006 29.2891 347° North  Level Estimated
04:03AM 39.6164 29.2532 347° North  Level Estimated
04:04AM 39.7321 29.2171 346° North  Level Estimated
04:05AM 39.8478 29.1809 346° North  Level Estimated
04:06AM 39.9635 29.1446 346° North  Level Estimated
04:07AM 40.0792 29.1082 346° North  Level Estimated
04:08AM 40.1949 29.0716 346° North  Level Estimated
04:09AM 40.3106 29.0350 346° North  Level Estimated
04:10AM 40.4262 28.9981 346° North  Level Estimated
04:11AM 40.5419 28.9612 346° North  Level Estimated
04:12AM 40.6575 28.9242 346° North  Level Estimated
04:13AM 40.7732 28.8870 346° North  Level Estimated
04:14AM 40.8888 28.8496 346° North  Level Estimated
04:15AM 41.0044 28.8122 166° South  Level Estimated
04:16AM 40.8888 28.8496 346° North  Level Estimated
04:17AM 41.0044 28.8122 166° South  Level Estimated
04:18AM 40.8888 28.8496 346° North  Level Estimated
04:19AM 41.0044 28.8122 166° South  Level Estimated
04:20AM 40.8888 28.8496 346° North  Level Estimated
04:21AM 41.0044 28.8122 166° South  Level Estimated
04:22AM 40.8888 28.8496 346° North  Level Estimated
04:23AM 41.0044 28.8122 166° South  Level Estimated
04:24AM 40.8888 28.8496 346° North  Level Estimated
04:25AM 41.0044 28.8122 166° South  Level Estimated
04:26AM 40.8888 28.8496 346° North  Level Estimated
04:27AM 41.0044 28.8122 166° South  Level Estimated
04:28AM 40.8888 28.8496 346° North  Level Estimated
04:29AM 41.0044 28.8122 166° South  Level Estimated
04:30AM 40.8888 28.8496 166° South  Level Estimated